Columbia, Iowa
Current Conditions -  °F | °C
As of 4:15 PM on Sunday 23 Nov 2014 (Local Time) from KOXV Reporting Station
Haze Haze  
Wind Chill: 52°   Ceiling: 300
Heat Index: 52°   Visibility: 3mi
Dew Point: 52°   Wind: 7mph
Humidity: 100%   Direction: 280°W
Pressure: 29.32"   Gusts: NA
Location:  41.18°N, 93.15°W
Report Text: KOXV 232215Z AUTO 28006KT 3SM BR BKN003 BKN009 OVC037 11/11 A2932 RMK AO2
Loading
Personal Weather Stations






























Interactive Weather Map New forecast layout! Learn more

10-Day Weather Forecast

Advertisements
Track Severe Weather on mobile